»·PEaware :: N145KT KSAN-KSNA

N145KT :: KSAN-KSNA

FLIGHT INFORMATION

Flight Status: Arrived
Operator: Privately registered:
United States
More flights under this callsign
Pilot: Maxwell P. (17296)
Aircraft: PILATUS PC-12 EAGLE
(PC12)
More flights by this aircraft type
Origin: KSAN San Diego Intl-Lindbergh
United States
Destination: KSNA John Wayne-Orange Co
United States
More flights between these airports :: More routes between these airports
Route: +PEBLE6 SLI
File this flight plan on PilotEdge
Remarks: Sample flight plan
Altitude:
(Current/Filed)
8,000ft
Speed:
(Current/Filed)
220kts
Departed: 18-Nov-17 10:05 AM
Arrived: 18-Nov-17 10:45 AM
Distance/Time
Traveled:
66nm/0:40
Distance/Time
To Go:
Arrived

Flight Plot

Page will automatically refresh every two minutes.


Map Options




Map Legend


Flown Route
Filed Route
Departure Airport
Arrival Airport
Navaid (VOR, NDB)
Fix

Horizontal Profiles

Position Reports

Time Latitude Longitude Heading Altitude Ground
Speed
18-Nov-17 09:26 32.732649 -117.176544 222 22ft 0kts
18-Nov-17 09:27 32.732648 -117.176546 222 22ft 0kts
18-Nov-17 09:28 32.732646 -117.176548 223 22ft 0kts
18-Nov-17 09:31 32.732424 -117.176646 194 22ft 0kts
18-Nov-17 09:32 32.732679 -117.176538 217 22ft 0kts
18-Nov-17 09:33 32.732679 -117.176538 217 22ft 0kts
18-Nov-17 09:34 32.732679 -117.176538 217 22ft 0kts
18-Nov-17 09:35 32.732679 -117.176538 217 22ft 0kts
18-Nov-17 09:36 32.732679 -117.176538 217 22ft 0kts
18-Nov-17 09:37 32.732679 -117.176538 217 22ft 0kts
18-Nov-17 09:38 32.732679 -117.176538 217 22ft 0kts
18-Nov-17 09:39 32.732679 -117.176538 217 22ft 0kts
18-Nov-17 09:40 32.732679 -117.176538 217 22ft 0kts
18-Nov-17 09:41 32.732679 -117.176538 217 22ft 0kts
18-Nov-17 09:42 32.732679 -117.176538 217 22ft 0kts
18-Nov-17 09:43 32.732679 -117.176538 217 22ft 0kts
18-Nov-17 09:44 32.732679 -117.176538 217 22ft 0kts
18-Nov-17 09:45 32.732679 -117.176538 217 22ft 0kts
18-Nov-17 09:46 32.732679 -117.176538 217 22ft 0kts
18-Nov-17 09:47 32.732679 -117.176538 217 22ft 0kts
18-Nov-17 09:48 32.732679 -117.176538 217 22ft 0kts
18-Nov-17 09:49 32.732679 -117.176538 217 22ft 0kts
18-Nov-17 09:50 32.732679 -117.176538 217 22ft 0kts
18-Nov-17 09:51 32.732679 -117.176538 217 22ft 0kts
18-Nov-17 09:52 32.732679 -117.176538 217 22ft 0kts
18-Nov-17 09:53 32.732679 -117.176538 217 22ft 0kts
18-Nov-17 09:54 32.732679 -117.176538 217 22ft 0kts
18-Nov-17 09:55 32.732679 -117.176538 217 22ft 0kts
18-Nov-17 09:56 32.732679 -117.176538 217 22ft 0kts
18-Nov-17 09:57 32.732679 -117.176538 217 22ft 0kts
18-Nov-17 09:58 32.732679 -117.176538 217 22ft 0kts
18-Nov-17 09:59 32.732679 -117.176538 217 22ft 0kts
18-Nov-17 10:00 32.732679 -117.176538 217 22ft 0kts
18-Nov-17 10:01 32.732679 -117.176538 217 22ft 0kts
18-Nov-17 10:02 32.732679 -117.176538 217 22ft 0kts
18-Nov-17 10:03 32.732679 -117.176538 217 22ft 0kts
18-Nov-17 10:04 32.732679 -117.176538 217 22ft 0kts
18-Nov-17 10:05 32.731611 -117.176831 155 20ft 8kts
18-Nov-17 10:06 32.730928 -117.175460 143 21ft 0kts
18-Nov-17 10:07 32.730816 -117.175324 124 21ft 0kts
18-Nov-17 10:08 32.730236 -117.175166 204 20ft 7kts
18-Nov-17 10:09 32.730120 -117.175496 285 20ft 0kts
18-Nov-17 10:10 32.738012 -117.202376 300 565ft 145kts
18-Nov-17 10:11 32.766384 -117.249648 304 1584ft 197kts
18-Nov-17 10:12 32.799081 -117.306013 304 2564ft 215kts
18-Nov-17 10:13 32.833478 -117.365351 304 3526ft 222kts
18-Nov-17 10:14 32.868740 -117.426242 304 4489ft 224kts
18-Nov-17 10:15 32.920381 -117.467193 329 5449ft 226kts
18-Nov-17 10:16 32.969637 -117.511859 308 6411ft 227kts
18-Nov-17 10:17 33.009127 -117.572146 308 7021ft 242kts
18-Nov-17 10:18 33.052028 -117.637277 308 7023ft 257kts
18-Nov-17 10:19 33.096346 -117.704686 307 7022ft 261kts
18-Nov-17 10:20 33.137375 -117.767735 307 7022ft 262kts
18-Nov-17 10:21 33.183547 -117.834456 330 6996ft 262kts
18-Nov-17 10:22 33.251161 -117.861203 342 7003ft 246kts
18-Nov-17 10:23 33.314171 -117.884005 342 7005ft 228kts
18-Nov-17 10:24 33.373216 -117.905394 342 7007ft 220kts
18-Nov-17 10:25 33.430575 -117.926211 342 7005ft 222kts
18-Nov-17 10:26 33.472775 -117.941531 342 7003ft 222kts
18-Nov-17 10:27 33.525098 -117.955254 20 7001ft 223kts
18-Nov-17 10:28 33.578710 -117.900148 41 7002ft 225kts
18-Nov-17 10:29 33.616515 -117.858687 41 7003ft 225kts
18-Nov-17 10:30 33.660578 -117.811719 25 6998ft 224kts
18-Nov-17 10:31 33.723486 -117.793808 11 6272ft 214kts
18-Nov-17 10:32 33.770218 -117.781721 11 5642ft 210kts
18-Nov-17 10:33 33.824826 -117.767828 11 4894ft 208kts
18-Nov-17 10:34 33.873791 -117.760058 333 4275ft 207kts
18-Nov-17 10:35 33.864718 -117.803046 193 3916ft 203kts
18-Nov-17 10:36 33.810317 -117.816896 191 3224ft 208kts
18-Nov-17 10:37 33.758949 -117.829617 191 2961ft 192kts
18-Nov-17 10:38 33.716540 -117.840089 192 2956ft 156kts
18-Nov-17 10:39 33.691765 -117.869481 231 2958ft 136kts
18-Nov-17 10:40 33.675985 -117.897519 270 2958ft 123kts
18-Nov-17 10:41 33.694401 -117.907515 29 2963ft 111kts
18-Nov-17 10:42 33.724941 -117.884739 31 2978ft 172kts
18-Nov-17 10:43 33.765184 -117.854651 31 2964ft 192kts
18-Nov-17 10:44 33.805164 -117.822195 49 2726ft 176kts
18-Nov-17 10:45 33.791117 -117.781011 187 1920ft 187kts
18-Nov-17 10:46 33.760514 -117.821366 223 1489ft 169kts
18-Nov-17 10:47 33.722221 -117.840976 201 863ft 145kts
18-Nov-17 10:48 33.693365 -117.857573 207 368ft 96kts
18-Nov-17 10:49 33.674271 -117.869673 204 60ft 43kts
18-Nov-17 10:50 33.673249 -117.870209 202 60ft 31kts

Navigation Log

Ident Type
1. KSAN Airport
2. MELDY Fix
3. PEBLE Fix
4. SLI Navaid
5. KSNA Airport